sensor_id;sensor_type;location;lat;lon;timestamp;P1;durP1;ratioP1;P2;durP2;ratioP2
65533;SDS011;53640;55.838;37.184;2022-11-11T00:01:27;31.27;;;16.42;;
65533;SDS011;53640;55.838;37.184;2022-11-11T00:04:12;29.73;;;15.10;;
65533;SDS011;53640;55.838;37.184;2022-11-11T00:06:57;33.35;;;17.98;;
65533;SDS011;53640;55.838;37.184;2022-11-11T00:09:41;34.42;;;16.25;;
65533;SDS011;53640;55.838;37.184;2022-11-11T00:12:26;29.65;;;15.15;;
65533;SDS011;53640;55.838;37.184;2022-11-11T00:15:11;32.15;;;18.98;;
65533;SDS011;53640;55.838;37.184;2022-11-11T00:17:56;29.65;;;16.75;;
65533;SDS011;53640;55.838;37.184;2022-11-11T00:21:00;27.23;;;15.18;;
65533;SDS011;53640;55.838;37.184;2022-11-11T00:24:04;28.45;;;15.95;;
65533;SDS011;53640;55.838;37.184;2022-11-11T00:27:09;23.38;;;13.90;;
65533;SDS011;53640;55.838;37.184;2022-11-11T00:29:54;28.10;;;15.85;;
65533;SDS011;53640;55.838;37.184;2022-11-11T00:32:39;27.00;;;14.80;;
65533;SDS011;53640;55.838;37.184;2022-11-11T00:35:24;31.55;;;16.48;;
65533;SDS011;53640;55.838;37.184;2022-11-11T00:38:28;30.05;;;15.43;;
65533;SDS011;53640;55.838;37.184;2022-11-11T00:41:33;33.17;;;17.08;;
65533;SDS011;53640;55.838;37.184;2022-11-11T00:44:18;30.77;;;17.33;;
65533;SDS011;53640;55.838;37.184;2022-11-11T00:47:02;25.20;;;13.85;;
65533;SDS011;53640;55.838;37.184;2022-11-11T00:50:09;28.60;;;16.98;;
65533;SDS011;53640;55.838;37.184;2022-11-11T00:53:19;26.80;;;15.25;;
65533;SDS011;53640;55.838;37.184;2022-11-11T00:56:24;26.10;;;13.88;;
65533;SDS011;53640;55.838;37.184;2022-11-11T00:59:11;26.73;;;14.32;;
65533;SDS011;53640;55.838;37.184;2022-11-11T01:01:56;25.73;;;14.60;;
65533;SDS011;53640;55.838;37.184;2022-11-11T01:04:43;25.88;;;16.20;;
65533;SDS011;53640;55.838;37.184;2022-11-11T01:07:31;24.55;;;14.60;;
65533;SDS011;53640;55.838;37.184;2022-11-11T01:10:17;22.17;;;12.45;;
65533;SDS011;53640;55.838;37.184;2022-11-11T01:13:24;24.67;;;14.05;;
65533;SDS011;53640;55.838;37.184;2022-11-11T01:16:28;21.20;;;13.65;;
65533;SDS011;53640;55.838;37.184;2022-11-11T01:19:13;22.77;;;12.95;;
65533;SDS011;53640;55.838;37.184;2022-11-11T01:21:59;18.73;;;11.70;;
65533;SDS011;53640;55.838;37.184;2022-11-11T01:24:47;17.35;;;10.85;;
65533;SDS011;53640;55.838;37.184;2022-11-11T01:27:32;22.67;;;13.07;;
65533;SDS011;53640;55.838;37.184;2022-11-11T01:30:17;18.80;;;11.23;;
65533;SDS011;53640;55.838;37.184;2022-11-11T01:33:02;18.90;;;12.70;;
65533;SDS011;53640;55.838;37.184;2022-11-11T01:35:47;18.13;;;11.20;;
65533;SDS011;53640;55.838;37.184;2022-11-11T01:38:34;21.58;;;13.18;;
65533;SDS011;53640;55.838;37.184;2022-11-11T01:41:21;18.77;;;12.10;;
65533;SDS011;53640;55.838;37.184;2022-11-11T01:44:18;18.55;;;11.07;;
65533;SDS011;53640;55.838;37.184;2022-11-11T01:47:21;19.35;;;10.80;;
65533;SDS011;53640;55.838;37.184;2022-11-11T01:50:06;22.13;;;13.85;;
65533;SDS011;53640;55.838;37.184;2022-11-11T01:52:56;17.65;;;10.40;;
65533;SDS011;53640;55.838;37.184;2022-11-11T01:55:42;24.30;;;13.48;;
65533;SDS011;53640;55.838;37.184;2022-11-11T01:58:28;21.90;;;12.75;;
65533;SDS011;53640;55.838;37.184;2022-11-11T02:01:14;18.30;;;10.95;;
65533;SDS011;53640;55.838;37.184;2022-11-11T02:04:00;15.32;;;9.15;;
65533;SDS011;53640;55.838;37.184;2022-11-11T02:07:06;18.10;;;10.23;;
65533;SDS011;53640;55.838;37.184;2022-11-11T02:09:53;16.35;;;9.40;;
65533;SDS011;53640;55.838;37.184;2022-11-11T02:12:39;14.57;;;9.27;;
65533;SDS011;53640;55.838;37.184;2022-11-11T02:15:44;12.35;;;8.38;;
65533;SDS011;53640;55.838;37.184;2022-11-11T02:18:29;14.80;;;9.38;;
65533;SDS011;53640;55.838;37.184;2022-11-11T02:24:38;13.45;;;8.70;;
65533;SDS011;53640;55.838;37.184;2022-11-11T02:27:25;14.32;;;9.02;;
65533;SDS011;53640;55.838;37.184;2022-11-11T02:30:14;18.35;;;11.30;;
65533;SDS011;53640;55.838;37.184;2022-11-11T02:33:01;16.58;;;9.95;;
65533;SDS011;53640;55.838;37.184;2022-11-11T02:35:48;13.35;;;8.73;;
65533;SDS011;53640;55.838;37.184;2022-11-11T02:38:41;13.35;;;9.30;;
65533;SDS011;53640;55.838;37.184;2022-11-11T02:41:27;12.40;;;8.50;;
65533;SDS011;53640;55.838;37.184;2022-11-11T02:44:31;13.48;;;8.27;;
65533;SDS011;53640;55.838;37.184;2022-11-11T02:47:16;12.85;;;7.93;;
65533;SDS011;53640;55.838;37.184;2022-11-11T02:50:01;13.45;;;8.25;;
65533;SDS011;53640;55.838;37.184;2022-11-11T02:52:47;20.58;;;9.95;;
65533;SDS011;53640;55.838;37.184;2022-11-11T02:55:32;11.32;;;7.90;;
65533;SDS011;53640;55.838;37.184;2022-11-11T02:58:17;10.38;;;7.18;;
65533;SDS011;53640;55.838;37.184;2022-11-11T03:01:03;12.52;;;8.05;;
65533;SDS011;53640;55.838;37.184;2022-11-11T03:03:48;10.07;;;7.28;;
65533;SDS011;53640;55.838;37.184;2022-11-11T03:06:33;10.48;;;7.18;;
65533;SDS011;53640;55.838;37.184;2022-11-11T03:09:28;12.25;;;8.45;;
65533;SDS011;53640;55.838;37.184;2022-11-11T03:19:53;10.73;;;7.40;;
65533;SDS011;53640;55.838;37.184;2022-11-11T03:23:12;11.18;;;6.55;;
65533;SDS011;53640;55.838;37.184;2022-11-11T03:34:32;10.18;;;6.05;;
65533;SDS011;53640;55.838;37.184;2022-11-11T03:37:23;10.10;;;6.65;;
65533;SDS011;53640;55.838;37.184;2022-11-11T03:40:33;11.43;;;7.07;;
65533;SDS011;53640;55.838;37.184;2022-11-11T03:43:34;10.60;;;7.38;;
65533;SDS011;53640;55.838;37.184;2022-11-11T03:46:59;10.60;;;6.83;;
65533;SDS011;53640;55.838;37.184;2022-11-11T03:49:45;10.35;;;7.07;;
65533;SDS011;53640;55.838;37.184;2022-11-11T03:52:30;10.48;;;6.78;;
65533;SDS011;53640;55.838;37.184;2022-11-11T03:55:16;10.90;;;7.00;;
65533;SDS011;53640;55.838;37.184;2022-11-11T03:58:01;11.15;;;7.45;;
65533;SDS011;53640;55.838;37.184;2022-11-11T04:00:46;10.27;;;7.53;;
65533;SDS011;53640;55.838;37.184;2022-11-11T04:03:30;10.75;;;7.20;;
65533;SDS011;53640;55.838;37.184;2022-11-11T04:06:34;8.35;;;6.43;;
65533;SDS011;53640;55.838;37.184;2022-11-11T04:09:38;11.15;;;7.50;;
65533;SDS011;53640;55.838;37.184;2022-11-11T04:12:42;10.98;;;6.85;;
65533;SDS011;53640;55.838;37.184;2022-11-11T04:15:45;10.95;;;6.78;;
65533;SDS011;53640;55.838;37.184;2022-11-11T04:18:49;9.98;;;6.22;;
65533;SDS011;53640;55.838;37.184;2022-11-11T04:21:53;8.38;;;6.20;;
65533;SDS011;53640;55.838;37.184;2022-11-11T04:24:38;11.00;;;7.28;;
65533;SDS011;53640;55.838;37.184;2022-11-11T04:27:41;8.57;;;5.88;;
65533;SDS011;53640;55.838;37.184;2022-11-11T04:30:27;12.70;;;6.78;;
65533;SDS011;53640;55.838;37.184;2022-11-11T04:33:11;11.80;;;7.25;;
65533;SDS011;53640;55.838;37.184;2022-11-11T04:35:56;9.63;;;6.00;;
65533;SDS011;53640;55.838;37.184;2022-11-11T04:38:41;13.27;;;7.32;;
65533;SDS011;53640;55.838;37.184;2022-11-11T04:41:44;9.13;;;6.57;;
65533;SDS011;53640;55.838;37.184;2022-11-11T04:44:29;10.73;;;6.15;;
65533;SDS011;53640;55.838;37.184;2022-11-11T04:50:46;14.00;;;7.80;;
65533;SDS011;53640;55.838;37.184;2022-11-11T04:53:31;8.93;;;6.05;;
65533;SDS011;53640;55.838;37.184;2022-11-11T04:56:16;8.55;;;5.88;;
65533;SDS011;53640;55.838;37.184;2022-11-11T04:59:21;11.00;;;6.50;;
65533;SDS011;53640;55.838;37.184;2022-11-11T05:02:06;8.73;;;6.63;;
65533;SDS011;53640;55.838;37.184;2022-11-11T05:05:11;7.40;;;5.53;;
65533;SDS011;53640;55.838;37.184;2022-11-11T05:07:55;9.77;;;5.40;;
65533;SDS011;53640;55.838;37.184;2022-11-11T05:10:59;6.25;;;5.25;;
65533;SDS011;53640;55.838;37.184;2022-11-11T05:13:45;6.53;;;5.13;;
65533;SDS011;53640;55.838;37.184;2022-11-11T05:16:50;12.00;;;5.22;;
65533;SDS011;53640;55.838;37.184;2022-11-11T05:19:58;7.05;;;4.78;;
65533;SDS011;53640;55.838;37.184;2022-11-11T05:23:02;8.45;;;5.47;;
65533;SDS011;53640;55.838;37.184;2022-11-11T05:25:46;7.30;;;4.72;;
65533;SDS011;53640;55.838;37.184;2022-11-11T05:28:32;8.23;;;5.82;;
65533;SDS011;53640;55.838;37.184;2022-11-11T05:31:17;6.28;;;4.75;;
65533;SDS011;53640;55.838;37.184;2022-11-11T05:34:01;6.15;;;4.65;;
65533;SDS011;53640;55.838;37.184;2022-11-11T05:36:47;6.65;;;4.75;;
65533;SDS011;53640;55.838;37.184;2022-11-11T05:39:32;6.05;;;4.90;;
65533;SDS011;53640;55.838;37.184;2022-11-11T05:42:17;6.32;;;4.43;;
65533;SDS011;53640;55.838;37.184;2022-11-11T05:45:02;6.85;;;5.00;;
65533;SDS011;53640;55.838;37.184;2022-11-11T05:47:48;6.20;;;4.93;;
65533;SDS011;53640;55.838;37.184;2022-11-11T05:50:33;6.63;;;4.40;;
65533;SDS011;53640;55.838;37.184;2022-11-11T05:53:20;5.00;;;4.50;;
65533;SDS011;53640;55.838;37.184;2022-11-11T05:56:07;5.75;;;4.57;;
65533;SDS011;53640;55.838;37.184;2022-11-11T05:58:53;5.60;;;4.30;;
65533;SDS011;53640;55.838;37.184;2022-11-11T06:01:40;6.35;;;4.60;;
65533;SDS011;53640;55.838;37.184;2022-11-11T06:04:25;8.23;;;5.85;;
65533;SDS011;53640;55.838;37.184;2022-11-11T06:07:10;7.68;;;5.10;;
65533;SDS011;53640;55.838;37.184;2022-11-11T06:09:55;7.38;;;4.80;;
65533;SDS011;53640;55.838;37.184;2022-11-11T06:13:00;6.60;;;5.18;;
65533;SDS011;53640;55.838;37.184;2022-11-11T06:15:45;8.30;;;5.00;;
65533;SDS011;53640;55.838;37.184;2022-11-11T06:18:30;5.53;;;4.80;;
65533;SDS011;53640;55.838;37.184;2022-11-11T06:21:34;6.25;;;4.68;;
65533;SDS011;53640;55.838;37.184;2022-11-11T07:50:45;10.07;;;5.82;;
65533;SDS011;53640;55.838;37.184;2022-11-11T07:53:31;7.38;;;5.70;;
65533;SDS011;53640;55.838;37.184;2022-11-11T07:56:25;8.00;;;5.68;;
65533;SDS011;53640;55.838;37.184;2022-11-11T07:59:10;9.07;;;5.55;;
65533;SDS011;53640;55.838;37.184;2022-11-11T08:01:56;5.75;;;4.28;;
65533;SDS011;53640;55.838;37.184;2022-11-11T08:04:41;6.35;;;4.60;;
65533;SDS011;53640;55.838;37.184;2022-11-11T08:07:26;7.05;;;4.65;;
65533;SDS011;53640;55.838;37.184;2022-11-11T08:10:12;9.65;;;5.15;;
65533;SDS011;53640;55.838;37.184;2022-11-11T08:12:57;6.40;;;4.35;;
65533;SDS011;53640;55.838;37.184;2022-11-11T08:16:02;5.60;;;4.03;;
65533;SDS011;53640;55.838;37.184;2022-11-11T08:18:50;8.20;;;4.72;;
65533;SDS011;53640;55.838;37.184;2022-11-11T08:21:37;5.80;;;4.30;;
65533;SDS011;53640;55.838;37.184;2022-11-11T08:24:24;5.75;;;4.15;;
65533;SDS011;53640;55.838;37.184;2022-11-11T08:27:09;8.00;;;4.75;;
65533;SDS011;53640;55.838;37.184;2022-11-11T08:29:54;6.47;;;4.30;;
65533;SDS011;53640;55.838;37.184;2022-11-11T08:32:39;5.68;;;3.83;;
65533;SDS011;53640;55.838;37.184;2022-11-11T08:35:28;5.20;;;3.67;;
65533;SDS011;53640;55.838;37.184;2022-11-11T08:38:16;6.57;;;4.38;;
65533;SDS011;53640;55.838;37.184;2022-11-11T08:41:01;7.47;;;4.78;;
65533;SDS011;53640;55.838;37.184;2022-11-11T08:43:51;5.70;;;3.90;;
65533;SDS011;53640;55.838;37.184;2022-11-11T08:46:39;7.70;;;4.22;;
65533;SDS011;53640;55.838;37.184;2022-11-11T08:49:24;8.80;;;4.32;;
65533;SDS011;53640;55.838;37.184;2022-11-11T08:52:09;5.82;;;4.20;;
65533;SDS011;53640;55.838;37.184;2022-11-11T08:54:54;6.15;;;4.63;;
65533;SDS011;53640;55.838;37.184;2022-11-11T08:57:39;7.30;;;4.57;;
65533;SDS011;53640;55.838;37.184;2022-11-11T09:00:24;6.55;;;4.00;;
65533;SDS011;53640;55.838;37.184;2022-11-11T09:03:09;7.25;;;4.70;;
65533;SDS011;53640;55.838;37.184;2022-11-11T09:05:55;6.88;;;4.75;;
65533;SDS011;53640;55.838;37.184;2022-11-11T09:08:41;5.57;;;3.83;;
65533;SDS011;53640;55.838;37.184;2022-11-11T09:11:28;5.13;;;3.65;;
65533;SDS011;53640;55.838;37.184;2022-11-11T09:14:20;3.83;;;3.33;;
65533;SDS011;53640;55.838;37.184;2022-11-11T09:17:05;6.40;;;4.13;;
65533;SDS011;53640;55.838;37.184;2022-11-11T09:19:53;6.00;;;3.50;;
65533;SDS011;53640;55.838;37.184;2022-11-11T09:22:44;6.35;;;2.72;;
65533;SDS011;53640;55.838;37.184;2022-11-11T09:25:31;2.67;;;2.40;;
65533;SDS011;53640;55.838;37.184;2022-11-11T09:28:16;4.38;;;3.08;;
65533;SDS011;53640;55.838;37.184;2022-11-11T09:31:01;4.00;;;2.88;;
65533;SDS011;53640;55.838;37.184;2022-11-11T09:33:47;5.63;;;2.72;;
65533;SDS011;53640;55.838;37.184;2022-11-11T09:36:32;3.03;;;2.70;;
65533;SDS011;53640;55.838;37.184;2022-11-11T09:39:18;2.70;;;2.50;;
65533;SDS011;53640;55.838;37.184;2022-11-11T09:48:32;2.75;;;2.25;;
65533;SDS011;53640;55.838;37.184;2022-11-11T09:51:25;4.72;;;3.03;;
65533;SDS011;53640;55.838;37.184;2022-11-11T09:54:18;3.38;;;2.83;;
65533;SDS011;53640;55.838;37.184;2022-11-11T09:58:49;6.05;;;2.88;;
65533;SDS011;53640;55.838;37.184;2022-11-11T10:01:13;4.60;;;3.38;;
65533;SDS011;53640;55.838;37.184;2022-11-11T10:04:19;9.05;;;3.30;;
65533;SDS011;53640;55.838;37.184;2022-11-11T10:07:12;4.88;;;3.15;;
65533;SDS011;53640;55.838;37.184;2022-11-11T10:10:16;4.20;;;2.67;;
65533;SDS011;53640;55.838;37.184;2022-11-11T10:13:29;3.10;;;2.72;;
65533;SDS011;53640;55.838;37.184;2022-11-11T10:22:20;2.50;;;2.30;;
65533;SDS011;53640;55.838;37.184;2022-11-11T10:28:42;3.90;;;3.17;;
65533;SDS011;53640;55.838;37.184;2022-11-11T10:31:28;3.92;;;2.80;;
65533;SDS011;53640;55.838;37.184;2022-11-11T10:34:14;3.78;;;2.80;;
65533;SDS011;53640;55.838;37.184;2022-11-11T10:37:08;3.75;;;2.78;;
65533;SDS011;53640;55.838;37.184;2022-11-11T10:43:01;3.75;;;2.65;;
65533;SDS011;53640;55.838;37.184;2022-11-11T10:45:55;3.08;;;2.78;;
65533;SDS011;53640;55.838;37.184;2022-11-11T10:49:18;4.60;;;3.20;;
65533;SDS011;53640;55.838;37.184;2022-11-11T10:52:21;3.05;;;2.75;;
65533;SDS011;53640;55.838;37.184;2022-11-11T10:55:21;2.88;;;2.67;;
65533;SDS011;53640;55.838;37.184;2022-11-11T10:58:40;3.53;;;3.22;;
65533;SDS011;53640;55.838;37.184;2022-11-11T11:01:40;3.90;;;3.53;;
65533;SDS011;53640;55.838;37.184;2022-11-11T11:04:45;2.92;;;2.63;;
65533;SDS011;53640;55.838;37.184;2022-11-11T11:07:42;2.80;;;2.53;;
65533;SDS011;53640;55.838;37.184;2022-11-11T11:10:41;3.30;;;3.00;;
65533;SDS011;53640;55.838;37.184;2022-11-11T11:16:59;4.43;;;3.45;;
65533;SDS011;53640;55.838;37.184;2022-11-11T11:22:58;3.92;;;3.13;;
65533;SDS011;53640;55.838;37.184;2022-11-11T11:25:50;5.20;;;2.90;;
65533;SDS011;53640;55.838;37.184;2022-11-11T11:28:54;4.85;;;3.05;;
65533;SDS011;53640;55.838;37.184;2022-11-11T11:31:41;6.05;;;3.97;;
65533;SDS011;53640;55.838;37.184;2022-11-11T11:41:40;5.35;;;3.30;;
65533;SDS011;53640;55.838;37.184;2022-11-11T11:44:47;3.85;;;3.03;;
65533;SDS011;53640;55.838;37.184;2022-11-11T11:55:14;6.78;;;3.75;;
65533;SDS011;53640;55.838;37.184;2022-11-11T12:17:49;5.55;;;3.63;;
65533;SDS011;53640;55.838;37.184;2022-11-11T12:20:53;5.47;;;4.22;;
65533;SDS011;53640;55.838;37.184;2022-11-11T12:23:55;4.30;;;3.40;;
65533;SDS011;53640;55.838;37.184;2022-11-11T12:31:39;5.90;;;4.57;;
65533;SDS011;53640;55.838;37.184;2022-11-11T12:45:53;5.30;;;3.30;;
65533;SDS011;53640;55.838;37.184;2022-11-11T13:00:10;4.97;;;4.03;;
65533;SDS011;53640;55.838;37.184;2022-11-11T13:04:07;4.82;;;4.05;;
65533;SDS011;53640;55.838;37.184;2022-11-11T13:06:38;3.80;;;3.40;;
65533;SDS011;53640;55.838;37.184;2022-11-11T13:09:40;6.30;;;3.50;;
65533;SDS011;53640;55.838;37.184;2022-11-11T13:22:31;3.45;;;2.92;;
65533;SDS011;53640;55.838;37.184;2022-11-11T13:25:23;3.95;;;2.50;;
65533;SDS011;53640;55.838;37.184;2022-11-11T13:34:20;2.47;;;2.10;;
65533;SDS011;53640;55.838;37.184;2022-11-11T13:37:43;2.63;;;2.30;;
65533;SDS011;53640;55.838;37.184;2022-11-11T13:44:27;2.78;;;2.33;;
65533;SDS011;53640;55.838;37.184;2022-11-11T14:18:02;3.45;;;3.03;;
65533;SDS011;53640;55.838;37.184;2022-11-11T14:29:13;5.30;;;3.63;;
65533;SDS011;53640;55.838;37.184;2022-11-11T14:46:40;7.45;;;3.10;;
65533;SDS011;53640;55.838;37.184;2022-11-11T14:53:54;4.30;;;3.03;;
65533;SDS011;53640;55.838;37.184;2022-11-11T14:56:40;4.25;;;2.50;;
65533;SDS011;53640;55.838;37.184;2022-11-11T14:59:28;3.25;;;2.65;;
65533;SDS011;53640;55.838;37.184;2022-11-11T15:02:32;4.43;;;2.92;;
65533;SDS011;53640;55.838;37.184;2022-11-11T15:19:26;2.30;;;2.10;;
65533;SDS011;53640;55.838;37.184;2022-11-11T15:43:52;2.80;;;2.30;;
65533;SDS011;53640;55.838;37.184;2022-11-11T15:46:41;4.45;;;2.40;;
65533;SDS011;53640;55.838;37.184;2022-11-11T15:52:26;4.45;;;2.35;;
65533;SDS011;53640;55.838;37.184;2022-11-11T15:55:31;4.10;;;2.55;;
65533;SDS011;53640;55.838;37.184;2022-11-11T16:02:24;3.00;;;2.40;;
65533;SDS011;53640;55.838;37.184;2022-11-11T16:05:27;4.47;;;2.85;;
65533;SDS011;53640;55.838;37.184;2022-11-11T19:24:58;6.35;;;4.10;;
65533;SDS011;53640;55.838;37.184;2022-11-11T19:27:51;5.55;;;3.50;;
65533;SDS011;53640;55.838;37.184;2022-11-11T19:30:49;5.25;;;3.70;;
65533;SDS011;53640;55.838;37.184;2022-11-11T19:33:52;4.75;;;3.95;;
65533;SDS011;53640;55.838;37.184;2022-11-11T19:36:39;6.07;;;4.13;;
65533;SDS011;53640;55.838;37.184;2022-11-11T19:39:24;6.82;;;3.83;;
65533;SDS011;53640;55.838;37.184;2022-11-11T19:42:10;7.47;;;3.53;;
65533;SDS011;53640;55.838;37.184;2022-11-11T19:44:58;8.13;;;3.70;;
65533;SDS011;53640;55.838;37.184;2022-11-11T19:47:43;4.32;;;3.35;;
65533;SDS011;53640;55.838;37.184;2022-11-11T19:51:01;4.78;;;4.00;;
65533;SDS011;53640;55.838;37.184;2022-11-11T19:53:54;5.45;;;4.00;;
65533;SDS011;53640;55.838;37.184;2022-11-11T19:57:01;5.60;;;3.35;;
65533;SDS011;53640;55.838;37.184;2022-11-11T20:00:05;5.45;;;3.67;;
65533;SDS011;53640;55.838;37.184;2022-11-11T20:02:56;7.13;;;3.63;;
65533;SDS011;53640;55.838;37.184;2022-11-11T20:05:58;5.22;;;3.85;;
65533;SDS011;53640;55.838;37.184;2022-11-11T20:09:01;10.93;;;4.25;;
65533;SDS011;53640;55.838;37.184;2022-11-11T20:11:55;5.97;;;3.65;;
65533;SDS011;53640;55.838;37.184;2022-11-11T20:14:40;5.85;;;3.97;;
65533;SDS011;53640;55.838;37.184;2022-11-11T20:17:43;5.55;;;4.00;;
65533;SDS011;53640;55.838;37.184;2022-11-11T20:20:28;7.45;;;3.83;;
65533;SDS011;53640;55.838;37.184;2022-11-11T20:23:16;5.18;;;3.63;;
65533;SDS011;53640;55.838;37.184;2022-11-11T20:26:05;6.43;;;4.05;;
65533;SDS011;53640;55.838;37.184;2022-11-11T20:29:06;5.40;;;4.40;;
65533;SDS011;53640;55.838;37.184;2022-11-11T20:31:59;7.15;;;3.90;;
65533;SDS011;53640;55.838;37.184;2022-11-11T20:38:10;6.57;;;4.32;;
65533;SDS011;53640;55.838;37.184;2022-11-11T20:40:59;5.70;;;4.68;;
65533;SDS011;53640;55.838;37.184;2022-11-11T20:43:49;6.75;;;4.85;;
65533;SDS011;53640;55.838;37.184;2022-11-11T20:46:37;7.80;;;4.60;;
65533;SDS011;53640;55.838;37.184;2022-11-11T20:49:49;8.65;;;4.93;;
65533;SDS011;53640;55.838;37.184;2022-11-11T20:52:35;8.93;;;5.13;;
65533;SDS011;53640;55.838;37.184;2022-11-11T20:55:24;6.28;;;5.00;;
65533;SDS011;53640;55.838;37.184;2022-11-11T20:58:27;6.72;;;5.30;;
65533;SDS011;53640;55.838;37.184;2022-11-11T21:01:19;7.90;;;5.38;;
65533;SDS011;53640;55.838;37.184;2022-11-11T21:04:10;7.88;;;6.10;;
65533;SDS011;53640;55.838;37.184;2022-11-11T21:11:02;8.55;;;6.15;;
65533;SDS011;53640;55.838;37.184;2022-11-11T21:13:59;8.52;;;6.68;;
65533;SDS011;53640;55.838;37.184;2022-11-11T21:17:06;9.05;;;6.43;;
65533;SDS011;53640;55.838;37.184;2022-11-11T21:34:23;11.27;;;6.80;;
65533;SDS011;53640;55.838;37.184;2022-11-11T21:37:56;8.88;;;6.65;;
65533;SDS011;53640;55.838;37.184;2022-11-11T21:49:21;12.00;;;7.15;;
65533;SDS011;53640;55.838;37.184;2022-11-11T21:53:53;8.77;;;6.15;;
65533;SDS011;53640;55.838;37.184;2022-11-11T21:57:11;9.70;;;5.80;;
65533;SDS011;53640;55.838;37.184;2022-11-11T22:00:11;6.57;;;5.80;;
65533;SDS011;53640;55.838;37.184;2022-11-11T22:03:03;9.57;;;6.00;;
65533;SDS011;53640;55.838;37.184;2022-11-11T22:05:49;12.05;;;6.82;;
65533;SDS011;53640;55.838;37.184;2022-11-11T22:08:33;7.38;;;5.55;;
65533;SDS011;53640;55.838;37.184;2022-11-11T22:11:20;10.05;;;5.70;;
65533;SDS011;53640;55.838;37.184;2022-11-11T22:14:06;8.30;;;5.85;;
65533;SDS011;53640;55.838;37.184;2022-11-11T22:16:51;10.15;;;5.43;;
65533;SDS011;53640;55.838;37.184;2022-11-11T22:19:38;8.93;;;5.70;;
65533;SDS011;53640;55.838;37.184;2022-11-11T22:22:25;7.60;;;5.60;;
65533;SDS011;53640;55.838;37.184;2022-11-11T22:25:10;11.38;;;5.63;;
65533;SDS011;53640;55.838;37.184;2022-11-11T22:27:55;8.27;;;5.53;;
65533;SDS011;53640;55.838;37.184;2022-11-11T22:30:39;6.45;;;5.22;;
65533;SDS011;53640;55.838;37.184;2022-11-11T22:33:25;7.50;;;4.95;;
65533;SDS011;53640;55.838;37.184;2022-11-11T22:36:12;7.82;;;4.93;;
65533;SDS011;53640;55.838;37.184;2022-11-11T22:38:59;5.38;;;4.82;;
65533;SDS011;53640;55.838;37.184;2022-11-11T22:41:45;5.95;;;4.85;;
65533;SDS011;53640;55.838;37.184;2022-11-11T22:44:33;10.27;;;4.82;;
65533;SDS011;53640;55.838;37.184;2022-11-11T22:47:18;6.65;;;4.45;;
65533;SDS011;53640;55.838;37.184;2022-11-11T22:50:03;8.35;;;4.57;;
65533;SDS011;53640;55.838;37.184;2022-11-11T22:52:50;7.15;;;4.85;;
65533;SDS011;53640;55.838;37.184;2022-11-11T22:55:39;7.88;;;4.65;;
65533;SDS011;53640;55.838;37.184;2022-11-11T22:58:24;5.45;;;4.28;;
65533;SDS011;53640;55.838;37.184;2022-11-11T23:01:16;8.13;;;4.57;;
65533;SDS011;53640;55.838;37.184;2022-11-11T23:04:07;5.85;;;3.85;;
65533;SDS011;53640;55.838;37.184;2022-11-11T23:06:57;6.35;;;4.20;;
65533;SDS011;53640;55.838;37.184;2022-11-11T23:09:42;6.80;;;4.50;;
65533;SDS011;53640;55.838;37.184;2022-11-11T23:12:29;7.68;;;4.25;;
65533;SDS011;53640;55.838;37.184;2022-11-11T23:15:21;6.30;;;4.03;;
65533;SDS011;53640;55.838;37.184;2022-11-11T23:18:06;6.30;;;3.80;;
65533;SDS011;53640;55.838;37.184;2022-11-11T23:20:55;4.95;;;3.60;;
65533;SDS011;53640;55.838;37.184;2022-11-11T23:23:41;7.18;;;3.70;;
65533;SDS011;53640;55.838;37.184;2022-11-11T23:26:30;9.75;;;3.70;;
65533;SDS011;53640;55.838;37.184;2022-11-11T23:29:19;10.70;;;4.37;;
65533;SDS011;53640;55.838;37.184;2022-11-11T23:32:04;7.78;;;4.60;;
65533;SDS011;53640;55.838;37.184;2022-11-11T23:34:48;6.60;;;4.18;;
65533;SDS011;53640;55.838;37.184;2022-11-11T23:37:34;7.10;;;4.07;;
65533;SDS011;53640;55.838;37.184;2022-11-11T23:40:19;6.85;;;3.83;;
65533;SDS011;53640;55.838;37.184;2022-11-11T23:43:04;9.07;;;4.30;;
65533;SDS011;53640;55.838;37.184;2022-11-11T23:45:49;6.45;;;4.00;;
65533;SDS011;53640;55.838;37.184;2022-11-11T23:48:36;6.28;;;3.60;;
65533;SDS011;53640;55.838;37.184;2022-11-11T23:51:30;5.55;;;3.67;;
65533;SDS011;53640;55.838;37.184;2022-11-11T23:54:15;6.18;;;4.60;;
65533;SDS011;53640;55.838;37.184;2022-11-11T23:57:00;6.35;;;3.80;;
65533;SDS011;53640;55.838;37.184;2022-11-11T23:59:46;7.85;;;4.03;;
